createdAt,value
2019-03-19T00:01:08.263Z,72.5
2019-03-19T00:11:22.338Z,72.5
2019-03-19T00:21:35.829Z,72.9
2019-03-19T00:31:50.411Z,72.6
2019-03-19T00:42:04.075Z,72.2
2019-03-19T00:52:15.520Z,71.9
2019-03-19T01:02:40.450Z,71.7
2019-03-19T01:12:53.816Z,72.1
2019-03-19T01:23:38.777Z,72.6
2019-03-19T01:34:25.313Z,72.0
2019-03-19T01:44:38.959Z,72.3
2019-03-19T01:54:53.021Z,72.1
2019-03-19T02:05:43.345Z,71.5
2019-03-19T02:16:47.506Z,71.8
2019-03-19T02:27:04.756Z,71.9
2019-03-19T02:37:22.764Z,71.8
2019-03-19T02:47:39.179Z,72.2
2019-03-19T02:58:42.574Z,72.2
2019-03-19T03:09:37.056Z,72.2
2019-03-19T03:20:30.528Z,72.0
2019-03-19T03:31:18.361Z,72.1
2019-03-19T03:42:23.044Z,72.3
2019-03-19T03:52:39.777Z,72.3
2019-03-19T04:04:35.859Z,72.3
2019-03-19T04:15:27.409Z,72.0
2019-03-19T04:27:15.214Z,72.4
2019-03-19T04:38:02.536Z,72.5
2019-03-19T04:49:01.024Z,72.1
2019-03-19T04:59:51.519Z,72.7
2019-03-19T05:10:45.330Z,72.3
2019-03-19T05:21:37.777Z,72.1
2019-03-19T05:32:29.625Z,72.5
2019-03-19T05:43:24.618Z,72.7
2019-03-19T05:54:15.067Z,72.5
2019-03-19T06:04:34.545Z,72.8
2019-03-19T06:15:24.513Z,73.6
2019-03-19T06:26:12.424Z,73.8
2019-03-19T06:37:39.483Z,74.0
2019-03-19T06:48:26.943Z,74.2
2019-03-19T07:03:59.313Z,75.0
2019-03-19T07:14:17.339Z,74.1
2019-03-19T07:25:07.197Z,75.1
2019-03-19T07:35:58.609Z,75.7
2019-03-19T07:46:46.054Z,78.3
2019-03-19T07:56:57.282Z,78.2
2019-03-19T08:07:11.429Z,74.6
2019-03-19T08:17:26.091Z,71.1
2019-03-19T08:28:12.975Z,66.4
2019-03-19T08:38:57.732Z,64.0
2019-03-19T08:49:11.013Z,61.2
2019-03-19T08:59:24.559Z,59.2
2019-03-19T09:09:38.294Z,58.7
2019-03-19T09:19:51.916Z,55.8
2019-03-19T09:30:05.801Z,55.5
2019-03-19T09:40:29.001Z,53.5
2019-03-19T09:50:42.544Z,49.9
2019-03-19T10:01:06.120Z,46.8
2019-03-19T10:11:19.807Z,46.3
2019-03-19T10:21:33.073Z,46.4
2019-03-19T10:31:44.262Z,45.0
2019-03-19T10:41:57.398Z,45.1
2019-03-19T10:52:54.999Z,46.8
2019-03-19T11:03:08.409Z,47.2
2019-03-19T11:13:21.488Z,49.4
2019-03-19T11:24:05.517Z,45.7
2019-03-19T11:34:32.698Z,45.2
2019-03-19T11:44:46.001Z,41.1
2019-03-19T11:54:59.679Z,39.9
2019-03-19T12:05:14.714Z,39.5
2019-03-19T12:15:40.928Z,39.3
2019-03-19T12:25:55.365Z,37.0
2019-03-19T12:36:09.118Z,39.0
2019-03-19T12:46:22.648Z,39.6
2019-03-19T12:56:38.121Z,41.7
2019-03-19T13:07:00.242Z,42.5
2019-03-19T13:17:14.128Z,46.6
2019-03-19T13:27:43.474Z,51.2
2019-03-19T13:38:29.337Z,54.2
2019-03-19T13:48:53.986Z,55.1
2019-03-19T13:59:12.638Z,55.8
2019-03-19T14:09:26.231Z,56.0
2019-03-19T14:19:40.258Z,57.0
2019-03-19T14:29:54.483Z,56.9
2019-03-19T14:40:08.685Z,55.7
2019-03-19T14:50:22.683Z,55.4
2019-03-19T15:00:47.961Z,56.3
2019-03-19T15:12:01.254Z,56.4
2019-03-19T15:23:08.726Z,57.6
2019-03-19T15:34:02.086Z,57.3
2019-03-19T15:44:54.214Z,56.2
2019-03-19T15:55:42.508Z,58.0
2019-03-19T16:06:43.514Z,57.3
2019-03-19T16:17:33.264Z,57.1
2019-03-19T16:27:49.360Z,57.1
2019-03-19T16:38:59.164Z,56.6
2019-03-19T16:50:04.076Z,56.7
2019-03-19T17:01:09.436Z,56.6
2019-03-19T17:12:03.126Z,56.7
2019-03-19T17:22:58.763Z,57.1
2019-03-19T17:33:24.440Z,57.3
2019-03-19T17:44:20.318Z,57.7
2019-03-19T17:54:57.316Z,58.3
2019-03-19T18:06:06.721Z,58.4
2019-03-19T18:17:42.354Z,58.6
2019-03-19T18:28:37.147Z,58.5
2019-03-19T18:39:41.932Z,60.2
2019-03-19T20:10:38.738Z,61.8
2019-03-19T20:40:52.222Z,62.2
2019-03-19T20:51:10.436Z,62.0
2019-03-19T21:02:11.634Z,62.2
2019-03-19T21:13:12.912Z,62.2
2019-03-19T21:23:42.715Z,62.1
2019-03-19T21:33:59.352Z,62.3
2019-03-19T21:44:25.120Z,62.6
2019-03-19T21:55:10.127Z,62.4
2019-03-19T22:05:57.284Z,62.6
2019-03-19T22:16:17.414Z,62.6
2019-03-19T22:26:48.386Z,62.7
2019-03-19T22:37:33.371Z,62.8
2019-03-19T22:48:19.953Z,63.1
2019-03-19T22:58:34.098Z,63.0
2019-03-19T23:08:47.763Z,63.2
2019-03-19T23:19:02.240Z,63.2
2019-03-19T23:29:16.490Z,63.7
2019-03-19T23:39:30.152Z,63.9
2019-03-19T23:49:49.814Z,64.1
